Time;durP1;ratioP1;P1;durP2;ratioP2;P2;SDS_P1;SDS_P2;PMS_P1;PMS_P2;Temp;Humidity;BMP_temperature;BMP_pressure;BME280_temperature;BME280_humidity;BME280_pressure;Samples;Min_cycle;Max_cycle;Signal;HPM_P1;HPM_P2
2021/12/31 00:04:40;;;;;;;19.67;7.20;;;;;;;9.20;88.28;96906.72;10297093;28;96798;-73
2021/12/31 00:09:44;;;;;;;14.05;6.60;;;;;;;9.15;88.50;96906.25;10295128;28;96767;-73
2021/12/31 00:14:49;;;;;;;20.33;7.78;;;;;;;9.19;88.48;96905.03;10310953;28;96718;-73
2021/12/31 00:20:00;;;;;;;11.60;6.13;;;;;;;9.22;88.24;96907.41;10296812;28;97303;-73
2021/12/31 00:25:03;;;;;;;10.95;6.57;;;;;;;9.23;88.28;96902.09;10295887;28;96801;-73
2021/12/31 00:30:09;;;;;;;14.10;8.50;;;;;;;9.24;88.56;96911.53;10293995;28;96809;-73
2021/12/31 00:35:12;;;;;;;18.45;8.82;;;;;;;9.29;88.26;96911.19;10299209;28;96879;-73
2021/12/31 00:40:17;;;;;;;14.68;8.80;;;;;;;9.28;88.11;96912.13;10295972;28;96929;-73
2021/12/31 00:45:22;;;;;;;16.40;9.40;;;;;;;9.30;88.38;96918.06;10291664;28;97216;-73
2021/12/31 00:50:25;;;;;;;13.95;9.70;;;;;;;9.33;88.19;96923.00;10297312;28;96753;-73
2021/12/31 00:55:28;;;;;;;19.38;12.43;;;;;;;9.33;88.24;96923.00;10295404;28;96751;-73
2021/12/31 01:00:32;;;;;;;16.17;10.93;;;;;;;9.30;88.06;96923.28;10293160;28;96888;-73
2021/12/31 01:05:35;;;;;;;18.00;12.73;;;;;;;9.26;88.53;96919.25;10295565;28;99976;-73
2021/12/31 01:10:38;;;;;;;23.20;15.13;;;;;;;9.27;88.65;96928.75;10294310;28;97848;-73
2021/12/31 01:15:46;;;;;;;17.65;10.77;;;;;;;9.11;88.29;96934.34;10294520;28;96813;-73
2021/12/31 01:20:49;;;;;;;15.82;10.10;;;;;;;9.08;88.41;96930.19;10275954;28;96662;-73
2021/12/31 01:25:52;;;;;;;10.30;7.43;;;;;;;9.11;88.66;96936.94;10294960;28;96860;-73
2021/12/31 01:30:56;;;;;;;14.48;9.57;;;;;;;9.14;88.72;96936.69;10293986;28;102201;-73
2021/12/31 01:35:59;;;;;;;15.63;10.83;;;;;;;9.15;88.45;96946.19;10290597;28;96908;-73
2021/12/31 01:41:03;;;;;;;16.67;10.52;;;;;;;9.12;88.60;96943.81;10295630;28;96865;-73
2021/12/31 01:46:12;;;;;;;10.65;6.97;;;;;;;9.03;88.63;96942.75;10293829;28;96717;-73
2021/12/31 01:51:15;;;;;;;13.57;8.38;;;;;;;9.06;88.56;96942.50;10289514;28;96948;-73
2021/12/31 01:56:26;;;;;;;11.55;7.45;;;;;;;9.10;88.27;96936.09;10296492;28;97056;-73
2021/12/31 02:01:31;;;;;;;6.22;4.25;;;;;;;9.02;88.29;96935.06;10293003;28;96763;-73
2021/12/31 02:06:34;;;;;;;6.72;4.40;;;;;;;8.87;88.42;96931.88;10291069;28;97830;-73
2021/12/31 02:11:37;;;;;;;5.50;3.85;;;;;;;8.79;89.02;96929.88;10294850;28;97230;-73
2021/12/31 02:16:41;;;;;;;7.00;4.10;;;;;;;8.76;88.65;96927.53;10293564;28;96799;-73
2021/12/31 02:21:46;;;;;;;6.20;4.00;;;;;;;8.81;88.52;96928.00;10292070;28;96753;-73
2021/12/31 02:26:50;;;;;;;9.52;4.18;;;;;;;8.88;88.33;96921.34;10274904;28;96836;-73
2021/12/31 02:31:53;;;;;;;6.93;3.75;;;;;;;8.97;88.46;96930.22;10292166;28;96846;-74
2021/12/31 02:36:57;;;;;;;9.40;5.57;;;;;;;8.99;88.41;96917.06;10293062;28;97196;-73
2021/12/31 02:42:00;;;;;;;8.32;5.38;;;;;;;8.98;88.08;96924.03;10290486;28;96784;-73
2021/12/31 02:47:05;;;;;;;8.85;5.57;;;;;;;8.95;88.22;96913.88;10293697;28;96821;-74
2021/12/31 02:52:13;;;;;;;14.20;5.68;;;;;;;8.97;88.08;96917.19;10292320;28;96662;-73
2021/12/31 02:57:18;;;;;;;8.90;6.28;;;;;;;8.95;88.24;96906.06;10287363;28;100041;-73
2021/12/31 03:02:24;;;;;;;9.88;5.55;;;;;;;8.76;88.60;96913.66;10295156;28;98586;-73
2021/12/31 03:07:31;;;;;;;9.82;6.50;;;;;;;8.82;88.36;96907.97;10291976;28;96684;-73
2021/12/31 03:12:33;;;;;;;9.98;6.60;;;;;;;8.82;88.13;96907.97;10290119;28;97390;-73
2021/12/31 03:17:36;;;;;;;11.57;6.93;;;;;;;8.86;88.38;96904.16;10291171;28;96856;-73
2021/12/31 03:22:42;;;;;;;10.88;6.47;;;;;;;8.88;88.44;96907.47;10291506;28;96900;-73
2021/12/31 03:27:45;;;;;;;9.90;6.60;;;;;;;8.87;88.29;96895.41;10290926;28;96891;-73
2021/12/31 03:32:48;;;;;;;13.40;6.82;;;;;;;8.95;87.93;96890.44;10272339;28;96671;-73
2021/12/31 03:37:54;;;;;;;10.40;6.63;;;;;;;8.96;88.24;96899.06;10292288;28;96721;-73
2021/12/31 03:42:57;;;;;;;11.20;7.13;;;;;;;8.92;88.69;96901.91;10294620;28;96925;-73
2021/12/31 03:47:59;;;;;;;12.60;6.53;;;;;;;8.91;88.37;96883.78;10295512;28;96811;-73
2021/12/31 03:53:04;;;;;;;10.73;6.93;;;;;;;8.95;88.57;96881.75;10299853;28;97890;-73
2021/12/31 03:58:07;;;;;;;7.10;4.88;;;;;;;8.94;88.51;96891.38;10297314;28;96674;-73
2021/12/31 04:03:11;;;;;;;9.05;4.38;;;;;;;8.93;88.54;96879.28;10293148;28;96847;-73
2021/12/31 04:08:15;;;;;;;9.40;4.23;;;;;;;8.92;88.75;96878.47;10299691;28;96764;-73
2021/12/31 04:13:18;;;;;;;11.18;5.68;;;;;;;8.92;88.17;96877.63;10296374;28;96855;-73
2021/12/31 04:18:22;;;;;;;5.95;4.22;;;;;;;8.91;88.31;96886.41;10293409;28;99833;-73
2021/12/31 04:23:28;;;;;;;7.47;5.18;;;;;;;8.80;88.17;96881.22;10298571;28;96740;-73
2021/12/31 04:28:31;;;;;;;8.48;5.45;;;;;;;8.66;88.37;96883.13;10296300;28;96982;-73
2021/12/31 04:33:34;;;;;;;8.55;5.38;;;;;;;8.66;88.66;96877.91;10294506;28;96866;-73
2021/12/31 04:38:38;;;;;;;8.02;5.35;;;;;;;8.72;88.55;96872.22;10296514;28;96933;-73
2021/12/31 04:43:41;;;;;;;9.03;5.40;;;;;;;8.81;88.22;96868.06;10296347;28;97016;-73
2021/12/31 04:48:44;;;;;;;6.38;4.30;;;;;;;8.82;88.54;96868.88;10294966;28;96805;-73
2021/12/31 04:53:48;;;;;;;6.53;3.58;;;;;;;8.81;88.18;96869.81;10293881;28;96684;-73
2021/12/31 04:58:51;;;;;;;8.00;5.00;;;;;;;8.83;88.29;96862.72;10294011;28;96743;-73
2021/12/31 05:03:54;;;;;;;9.25;5.50;;;;;;;8.86;88.07;96870.28;10294642;28;97437;-73
2021/12/31 05:08:58;;;;;;;9.32;6.50;;;;;;;8.66;88.82;96867.50;10293242;28;96915;-73
2021/12/31 05:14:01;;;;;;;7.78;5.25;;;;;;;8.68;88.81;96860.38;10295927;28;99599;-73
2021/12/31 05:19:05;;;;;;;8.75;6.47;;;;;;;8.68;88.64;96865.59;10294601;28;96711;-73
2021/12/31 05:24:09;;;;;;;7.97;5.63;;;;;;;8.73;88.25;96879.06;10291515;28;96665;-73
2021/12/31 05:29:12;;;;;;;11.20;5.50;;;;;;;8.78;88.66;96873.53;10297208;28;96829;-73
2021/12/31 05:34:14;;;;;;;5.15;4.32;;;;;;;8.76;88.24;96879.78;10295188;28;96904;-73
2021/12/31 05:39:19;;;;;;;6.95;4.70;;;;;;;8.72;88.67;96877.44;10290352;28;98887;-73
2021/12/31 05:44:22;;;;;;;7.03;4.83;;;;;;;8.72;88.25;96861.81;10296354;28;97865;-73
2021/12/31 05:49:25;;;;;;;8.02;4.70;;;;;;;8.79;88.26;96874.34;10293319;28;97013;-73
2021/12/31 05:54:29;;;;;;;8.23;5.10;;;;;;;8.75;88.87;96865.13;10290851;28;96759;-74
2021/12/31 05:59:32;;;;;;;7.95;5.00;;;;;;;8.79;88.34;96882.16;10295044;28;99763;-73
2021/12/31 06:04:36;;;;;;;6.72;4.85;;;;;;;8.66;88.10;96871.88;10292646;28;96850;-73
2021/12/31 06:09:45;;;;;;;5.70;4.30;;;;;;;8.66;88.47;96882.31;10292807;28;96710;-73
2021/12/31 06:14:49;;;;;;;6.77;4.93;;;;;;;8.67;88.12;96883.94;10274726;28;96727;-73
2021/12/31 06:19:53;;;;;;;7.15;4.90;;;;;;;8.53;89.00;96892.81;10293152;28;96731;-73
2021/12/31 06:24:57;;;;;;;5.10;4.03;;;;;;;8.50;88.57;96887.88;10293582;28;97250;-74
2021/12/31 06:29:59;;;;;;;6.20;4.32;;;;;;;8.54;88.52;96894.50;10291818;28;97009;-73
2021/12/31 06:35:02;;;;;;;5.72;4.28;;;;;;;8.54;88.81;96891.88;10294753;28;96977;-73
2021/12/31 06:40:10;;;;;;;5.72;4.18;;;;;;;8.50;88.75;96899.13;10291387;28;96805;-74
2021/12/31 06:45:13;;;;;;;6.60;4.00;;;;;;;8.52;89.27;96902.41;10288010;28;96854;-73
2021/12/31 06:50:16;;;;;;;6.53;4.55;;;;;;;8.53;88.88;96906.69;10287392;28;96848;-73
2021/12/31 06:55:20;;;;;;;6.75;4.30;;;;;;;8.45;89.37;96905.63;10292032;28;96893;-74
2021/12/31 07:00:23;;;;;;;6.23;4.27;;;;;;;8.44;89.73;96899.56;10288716;28;96796;-73
2021/12/31 07:05:27;;;;;;;6.47;3.92;;;;;;;8.38;89.89;96894.84;10294132;28;98091;-73
2021/12/31 07:10:31;;;;;;;6.63;3.90;;;;;;;8.28;89.12;96906.91;10291196;28;97020;-73
2021/12/31 07:15:34;;;;;;;8.13;4.05;;;;;;;8.05;89.33;96908.63;10292204;28;96841;-73
2021/12/31 07:20:37;;;;;;;6.63;3.97;;;;;;;7.98;89.45;96901.31;10299241;28;96899;-73
2021/12/31 07:25:42;;;;;;;6.78;4.18;;;;;;;7.96;88.73;96900.59;10297985;28;97124;-73
2021/12/31 07:30:46;;;;;;;4.75;3.50;;;;;;;7.96;89.23;96905.81;10297546;28;97199;-73
2021/12/31 07:35:50;;;;;;;5.05;3.10;;;;;;;7.85;88.89;96921.38;10279414;28;96676;-73
2021/12/31 07:40:54;;;;;;;4.85;3.63;;;;;;;7.91;89.14;96915.72;10298056;28;98675;-73
2021/12/31 07:45:57;;;;;;;5.10;4.20;;;;;;;7.97;88.69;96907.44;10297871;28;97009;-73
2021/12/31 07:51:00;;;;;;;4.25;3.65;;;;;;;8.02;88.73;96919.31;10295730;28;97293;-73
2021/12/31 07:56:05;;;;;;;5.10;4.20;;;;;;;8.05;88.30;96926.84;10299624;28;96894;-73
2021/12/31 08:01:09;;;;;;;5.82;3.85;;;;;;;8.06;88.73;96931.94;10297404;28;96715;-73
2021/12/31 08:06:12;;;;;;;5.85;4.28;;;;;;;7.86;88.76;96943.03;10294418;28;96946;-73
2021/12/31 08:11:16;;;;;;;5.80;4.45;;;;;;;7.78;89.17;96935.78;10300121;28;96853;-73
2021/12/31 08:16:19;;;;;;;7.80;5.07;;;;;;;7.91;88.76;96933.94;10297261;28;96991;-73
2021/12/31 08:21:23;;;;;;;6.82;4.10;;;;;;;7.78;88.99;96934.00;10292153;28;98279;-74
2021/12/31 08:26:27;;;;;;;5.15;3.67;;;;;;;7.85;88.45;96941.34;10298209;28;96833;-73
2021/12/31 08:31:30;;;;;;;5.70;4.00;;;;;;;7.88;88.30;96947.16;10296606;28;97001;-73
2021/12/31 08:36:33;;;;;;;6.10;4.63;;;;;;;8.01;88.44;96957.47;10293505;28;96902;-73
2021/12/31 08:41:40;;;;;;;7.57;5.75;;;;;;;7.87;88.44;96968.91;10296998;28;97293;-74
2021/12/31 08:46:50;;;;;;;6.13;4.82;;;;;;;7.76;88.60;96972.31;10296919;28;96911;-73
2021/12/31 08:51:53;;;;;;;6.88;4.47;;;;;;;7.91;88.36;96972.97;10295002;28;96871;-73
2021/12/31 08:57:00;;;;;;;6.40;4.57;;;;;;;7.88;88.37;96990.56;10294804;28;96844;-73
2021/12/31 09:02:03;;;;;;;7.10;5.45;;;;;;;8.03;88.01;96988.59;10296878;28;97225;-73
2021/12/31 09:07:06;;;;;;;6.97;5.22;;;;;;;8.19;88.01;96994.34;10295320;28;96905;-73
2021/12/31 09:12:10;;;;;;;7.88;5.60;;;;;;;8.38;87.56;97016.38;10290478;28;96663;-73
2021/12/31 09:17:13;;;;;;;7.15;5.93;;;;;;;8.38;87.15;97024.19;10298148;28;96982;-73
2021/12/31 09:22:16;;;;;;;7.85;5.57;;;;;;;8.50;87.29;97018.91;10294725;28;96908;-73
2021/12/31 09:27:21;;;;;;;6.35;5.60;;;;;;;8.56;87.16;97017.59;10290608;28;96990;-73
2021/12/31 09:32:24;;;;;;;7.15;6.20;;;;;;;8.57;87.33;97019.28;10296787;28;96773;-74
2021/12/31 09:37:27;;;;;;;8.13;6.47;;;;;;;8.62;87.92;97014.53;10293933;28;96809;-73
2021/12/31 09:42:31;;;;;;;7.07;6.13;;;;;;;8.80;86.44;97021.91;10291585;28;96942;-73
2021/12/31 09:47:34;;;;;;;7.93;6.83;;;;;;;8.85;87.47;97024.97;10295663;28;96914;-73
2021/12/31 09:52:37;;;;;;;7.45;6.57;;;;;;;8.95;87.07;97027.69;10293979;28;96900;-73
2021/12/31 09:57:45;;;;;;;6.70;5.85;;;;;;;9.06;85.97;97036.34;10293070;28;97160;-73
2021/12/31 10:03:09;;;;;;;6.73;5.80;;;;;;;9.15;85.87;97020.94;10291218;28;96766;-74
2021/12/31 10:08:19;;;;;;;8.25;7.13;;;;;;;9.17;85.31;97026.88;10296271;28;96888;-73
2021/12/31 10:13:25;;;;;;;6.97;5.93;;;;;;;9.03;85.51;97047.00;10293457;28;99836;-74
2021/12/31 10:18:36;;;;;;;8.60;7.10;;;;;;;9.00;86.53;97049.88;10290232;28;96739;-73
2021/12/31 10:23:40;;;;;;;7.60;6.53;;;;;;;8.97;85.85;97042.28;10293579;28;96899;-73
2021/12/31 10:28:55;;;;;;;9.82;8.00;;;;;;;8.93;85.87;97043.44;10293095;28;96858;-73
2021/12/31 10:34:03;;;;;;;8.85;7.32;;;;;;;9.03;85.52;97040.97;10292290;28;97832;-74
2021/12/31 10:39:19;;;;;;;11.52;7.88;;;;;;;9.14;86.22;97038.34;10289915;28;96683;-74
2021/12/31 10:44:25;;;;;;;10.40;7.68;;;;;;;9.18;85.65;97033.75;10288183;28;97107;-73
2021/12/31 10:49:29;;;;;;;9.13;7.47;;;;;;;9.22;85.32;97041.19;10291937;28;96773;-73
2021/12/31 10:54:38;;;;;;;9.00;6.72;;;;;;;9.31;85.13;97024.00;10296877;28;96892;-73
2021/12/31 10:59:42;;;;;;;10.05;7.80;;;;;;;9.38;85.34;97003.50;10299436;28;96856;-74
2021/12/31 11:04:45;;;;;;;10.43;7.80;;;;;;;9.23;85.37;97008.97;10299138;28;97339;-73
2021/12/31 11:09:49;;;;;;;8.60;6.82;;;;;;;9.20;85.41;97027.47;10299078;28;96936;-73
2021/12/31 11:14:54;;;;;;;9.85;7.93;;;;;;;9.41;85.26;96998.84;10296850;28;96956;-73
2021/12/31 11:20:00;;;;;;;7.88;6.90;;;;;;;9.60;84.61;97002.66;10299811;28;97501;-73
2021/12/31 11:25:27;;;;;;;7.32;6.20;;;;;;;9.39;83.60;96990.34;10298755;28;97271;-73
2021/12/31 11:30:34;;;;;;;9.18;7.10;;;;;;;9.23;83.78;96967.25;10295946;28;96671;-74
2021/12/31 11:35:40;;;;;;;9.88;7.63;;;;;;;9.05;83.73;96960.88;10299695;28;96888;-73
2021/12/31 11:40:49;;;;;;;9.88;7.80;;;;;;;8.97;84.22;96961.50;10297879;28;96739;-73
2021/12/31 11:46:32;;;;;;;9.38;7.35;;;;;;;8.88;83.87;96951.75;10296674;28;96844;-73
2021/12/31 11:51:38;;;;;;;8.70;6.97;;;;;;;8.88;83.99;96959.59;10295751;28;96879;-74
2021/12/31 11:57:01;;;;;;;8.32;7.18;;;;;;;8.72;83.15;96971.22;10297592;28;96874;-73
2021/12/31 12:02:18;;;;;;;7.45;6.10;;;;;;;8.66;83.71;96950.84;10297886;28;96862;-74
2021/12/31 12:07:38;;;;;;;7.57;6.35;;;;;;;8.78;83.39;96938.66;10297552;28;96860;-73
2021/12/31 12:12:48;;;;;;;9.57;6.68;;;;;;;8.79;84.18;96924.66;10296083;28;97608;-73
2021/12/31 12:17:53;;;;;;;7.45;5.90;;;;;;;8.83;83.67;96935.66;10280171;28;99790;-73
2021/12/31 12:22:56;;;;;;;8.10;6.33;;;;;;;8.89;83.46;96948.22;10298016;28;97012;-73
2021/12/31 12:28:04;;;;;;;7.85;6.25;;;;;;;8.94;83.55;96922.63;10295787;28;97295;-74
2021/12/31 12:33:15;;;;;;;7.20;5.82;;;;;;;9.05;83.19;96933.03;10293699;28;96782;-73
2021/12/31 12:38:21;;;;;;;8.20;5.57;;;;;;;9.13;82.38;96957.69;10290222;28;99802;-73
2021/12/31 12:43:26;;;;;;;6.13;4.53;;;;;;;9.15;82.71;96940.97;10295685;28;96751;-74
2021/12/31 12:48:33;;;;;;;6.57;4.93;;;;;;;9.22;82.89;96936.09;10292686;28;96857;-73
2021/12/31 12:53:37;;;;;;;6.97;5.05;;;;;;;9.35;82.62;96931.56;10296829;28;96897;-73
2021/12/31 12:58:42;;;;;;;4.83;3.90;;;;;;;9.46;82.07;96934.16;10294790;28;96881;-74
2021/12/31 13:03:53;;;;;;;5.03;3.88;;;;;;;9.54;81.89;96915.28;10294679;28;96654;-73
2021/12/31 13:09:07;;;;;;;4.75;3.72;;;;;;;9.63;81.72;96924.97;10278642;28;96877;-73
2021/12/31 13:14:15;;;;;;;4.38;3.38;;;;;;;9.75;81.86;96928.38;10297419;28;96874;-74
2021/12/31 13:19:28;;;;;;;6.57;4.22;;;;;;;9.83;81.48;96920.72;10296095;28;96910;-74
2021/12/31 13:24:32;;;;;;;6.35;4.75;;;;;;;9.95;81.45;96910.22;10292698;28;96877;-74
2021/12/31 13:29:36;;;;;;;6.03;4.00;;;;;;;9.98;81.02;96933.47;10294719;28;97708;-73
2021/12/31 13:34:42;;;;;;;5.53;4.32;;;;;;;9.95;81.07;96949.38;10294071;28;96963;-73
2021/12/31 13:39:47;;;;;;;8.20;4.95;;;;;;;9.97;81.09;96948.28;10294091;28;96922;-74
2021/12/31 13:44:51;;;;;;;5.60;4.53;;;;;;;9.98;81.22;96947.34;10308018;28;96696;-73
2021/12/31 13:49:58;;;;;;;6.47;4.50;;;;;;;10.10;81.05;96961.16;10294362;28;96826;-73
2021/12/31 13:55:16;;;;;;;4.47;3.92;;;;;;;10.20;80.67;96959.44;10293685;28;97263;-73
2021/12/31 14:00:24;;;;;;;6.57;4.22;;;;;;;10.31;80.73;96961.16;10289576;28;97016;-73
2021/12/31 14:05:29;;;;;;;6.03;4.32;;;;;;;10.41;80.29;96962.06;10296358;28;97017;-73
2021/12/31 14:10:34;;;;;;;4.53;3.57;;;;;;;10.40;79.94;96965.59;10293245;28;96997;-74
2021/12/31 14:15:38;;;;;;;;;;;;;;;10.34;80.19;96971.34;10292626;28;97007;-73
2021/12/31 14:20:44;;;;;;;4.82;3.30;;;;;;;10.38;80.04;96982.38;10292751;28;96846;-73
2021/12/31 14:25:47;;;;;;;4.80;3.38;;;;;;;10.42;80.06;96974.13;10291323;28;96708;-74
2021/12/31 14:30:50;;;;;;;5.45;3.33;;;;;;;10.52;79.64;96989.88;10292643;28;96793;-73
2021/12/31 14:35:56;;;;;;;4.20;3.15;;;;;;;10.55;78.90;96988.81;10290600;28;96969;-73
2021/12/31 14:41:02;;;;;;;3.47;3.17;;;;;;;10.62;78.85;96982.09;10293661;28;99738;-74
2021/12/31 14:46:05;;;;;;;4.65;3.60;;;;;;;10.72;78.82;96976.91;10292335;28;97116;-73
2021/12/31 14:51:10;;;;;;;5.15;3.03;;;;;;;10.75;78.39;96980.09;10288731;28;96837;-74
2021/12/31 14:56:13;;;;;;;3.67;3.05;;;;;;;10.74;78.57;96988.91;10296381;28;96706;-73
2021/12/31 15:01:16;;;;;;;4.18;3.20;;;;;;;10.71;78.63;96983.94;10292176;28;97014;-74
2021/12/31 15:06:21;;;;;;;4.93;3.78;;;;;;;10.72;78.36;96976.91;10287674;28;96938;-73
2021/12/31 15:11:23;;;;;;;6.00;4.33;;;;;;;10.75;78.63;96979.25;10293333;28;96885;-73
2021/12/31 15:16:27;;;;;;;5.38;3.33;;;;;;;10.78;78.17;96979.00;10292246;28;96864;-73
2021/12/31 15:21:31;;;;;;;4.55;3.70;;;;;;;10.71;78.52;96983.94;10288767;28;96800;-73
2021/12/31 15:26:34;;;;;;;5.20;3.47;;;;;;;10.73;78.43;96973.34;10292928;28;96843;-73
2021/12/31 15:31:37;;;;;;;3.47;3.13;;;;;;;10.69;78.35;96982.41;10291520;28;97203;-73
2021/12/31 15:36:41;;;;;;;4.30;3.72;;;;;;;10.60;77.82;96986.63;10291718;28;97229;-73
2021/12/31 15:41:46;;;;;;;4.97;3.78;;;;;;;10.48;78.51;96998.94;10298048;28;96854;-73
2021/12/31 15:46:49;;;;;;;5.95;4.13;;;;;;;10.31;78.56;97004.75;10297966;28;96746;-73
2021/12/31 15:51:53;;;;;;;4.28;3.67;;;;;;;10.10;78.72;97010.78;10297728;28;97077;-73
2021/12/31 15:56:56;;;;;;;4.45;3.40;;;;;;;9.82;79.46;97026.06;10296207;28;96874;-73
2021/12/31 16:01:59;;;;;;;5.18;3.85;;;;;;;9.62;80.35;97016.41;10297567;28;96879;-73
2021/12/31 16:07:04;;;;;;;5.10;3.95;;;;;;;9.40;80.72;97022.44;10297345;28;97222;-73
2021/12/31 16:12:08;;;;;;;5.45;4.07;;;;;;;9.23;81.19;97015.97;10294508;28;96717;-73
2021/12/31 16:17:11;;;;;;;6.68;3.90;;;;;;;8.99;81.39;97018.72;10300147;28;96662;-73
2021/12/31 16:22:16;;;;;;;5.47;3.97;;;;;;;8.87;81.72;97018.69;10296471;28;96843;-73
2021/12/31 16:27:19;;;;;;;5.60;4.03;;;;;;;8.72;81.79;97017.25;10292100;28;98004;-73
2021/12/31 16:32:23;;;;;;;4.50;3.53;;;;;;;8.40;82.64;97017.09;10299033;28;96919;-73
2021/12/31 16:37:28;;;;;;;4.03;2.85;;;;;;;7.99;82.94;97029.63;10296717;28;96786;-73
2021/12/31 16:42:31;;;;;;;3.65;2.88;;;;;;;7.78;83.35;97042.41;10293954;28;96808;-73
2021/12/31 16:47:34;;;;;;;3.58;2.90;;;;;;;7.76;83.10;97044.31;10296054;28;96923;-73
2021/12/31 16:52:38;;;;;;;3.53;2.70;;;;;;;7.73;82.92;97042.75;10295483;28;100154;-73
2021/12/31 16:57:44;;;;;;;4.72;3.08;;;;;;;7.66;82.70;97044.13;10295177;28;96711;-73
2021/12/31 17:02:47;;;;;;;3.72;1.70;;;;;;;7.39;83.11;97044.34;10293842;28;96748;-73
2021/12/31 17:07:52;;;;;;;5.07;3.25;;;;;;;7.12;83.70;97040.13;10295572;28;96881;-73
2021/12/31 17:12:54;;;;;;;6.60;3.83;;;;;;;6.96;83.93;97042.94;10295038;28;96907;-73
2021/12/31 17:17:57;;;;;;;6.30;3.83;;;;;;;6.90;84.17;97045.91;10292920;28;96997;-73
2021/12/31 17:23:02;;;;;;;6.03;3.67;;;;;;;6.71;84.45;97045.50;10295958;28;96868;-73
2021/12/31 17:28:05;;;;;;;6.95;4.00;;;;;;;6.73;84.21;97048.84;10295118;28;96770;-73
2021/12/31 17:33:08;;;;;;;7.05;3.65;;;;;;;6.68;83.90;97058.69;10291446;28;96789;-73
2021/12/31 17:38:12;;;;;;;7.68;4.45;;;;;;;6.62;84.30;97062.53;10296938;28;96703;-73
2021/12/31 17:43:15;;;;;;;9.90;4.90;;;;;;;6.34;84.50;97071.34;10293177;28;97493;-73
2021/12/31 17:48:18;;;;;;;8.98;4.88;;;;;;;6.08;84.90;97074.69;10289386;28;97215;-73
2021/12/31 17:53:22;;;;;;;7.95;4.90;;;;;;;6.05;85.41;97071.47;10297249;28;98819;-73
2021/12/31 17:58:25;;;;;;;4.90;3.47;;;;;;;6.02;84.84;97085.47;10293413;28;96781;-73
2021/12/31 18:03:30;;;;;;;2.97;2.22;;;;;;;6.02;84.84;97090.66;10289702;28;96802;-73
2021/12/31 18:08:35;;;;;;;3.28;2.47;;;;;;;5.97;84.80;97086.72;10294666;28;96944;-73
2021/12/31 18:13:37;;;;;;;8.10;3.58;;;;;;;5.89;84.75;97089.78;10293927;28;98682;-73
2021/12/31 18:18:43;;;;;;;6.88;3.75;;;;;;;5.66;85.04;97092.06;10292120;28;97216;-73
2021/12/31 18:23:47;;;;;;;;;;;;;;;5.54;85.21;97100.63;10293361;28;97145;-73
2021/12/31 18:28:51;;;;;;;5.47;4.27;;;;;;;5.51;85.34;97105.97;10293492;28;96901;-73
2021/12/31 18:33:54;;;;;;;6.95;4.55;;;;;;;5.45;85.24;97122.75;10291973;28;96825;-73
2021/12/31 18:38:59;;;;;;;6.50;4.75;;;;;;;5.48;85.34;97121.75;10291128;28;96894;-73
2021/12/31 18:44:02;;;;;;;6.10;4.40;;;;;;;5.46;84.94;97113.22;10294175;28;96737;-73
2021/12/31 18:49:16;;;;;;;5.57;4.35;;;;;;;5.43;85.16;97129.78;10292466;28;97048;-73
2021/12/31 18:54:20;;;;;;;5.75;3.85;;;;;;;5.11;85.41;97134.31;10288755;28;96965;-73
2021/12/31 18:59:23;;;;;;;5.20;4.07;;;;;;;4.99;85.81;97135.06;10295256;28;96873;-73
2021/12/31 19:04:26;;;;;;;7.10;5.10;;;;;;;5.08;85.86;97137.09;10291403;28;97184;-73
2021/12/31 19:09:31;;;;;;;10.23;4.82;;;;;;;5.11;85.63;97148.13;10290382;28;96715;-73
2021/12/31 19:14:35;;;;;;;7.40;5.00;;;;;;;4.80;85.95;97156.00;10298705;28;96660;-73
2021/12/31 19:19:38;;;;;;;8.75;6.32;;;;;;;4.75;86.56;97154.53;10298916;28;97047;-73
2021/12/31 19:24:42;;;;;;;10.13;7.20;;;;;;;4.74;86.53;97158.03;10296627;28;96909;-73
2021/12/31 19:29:45;;;;;;;11.45;7.05;;;;;;;4.76;86.28;97150.19;10298255;28;96638;-73
2021/12/31 19:34:48;;;;;;;11.52;7.75;;;;;;;4.75;85.85;97156.31;10298073;28;96834;-73
2021/12/31 19:39:53;;;;;;;8.93;5.53;;;;;;;4.62;85.86;97160.50;10297893;28;96704;-73
2021/12/31 19:44:55;;;;;;;8.02;5.82;;;;;;;4.52;85.94;97155.00;10295765;28;96972;-73
2021/12/31 19:49:58;;;;;;;9.40;6.63;;;;;;;4.40;86.16;97161.72;10299075;28;97300;-73
2021/12/31 19:55:03;;;;;;;10.00;7.53;;;;;;;4.40;86.09;97169.47;10297718;28;96888;-73
2021/12/31 20:00:07;;;;;;;11.53;6.90;;;;;;;4.37;85.95;97170.50;10294888;28;96765;-73
2021/12/31 20:05:10;;;;;;;11.77;8.23;;;;;;;4.37;85.88;97174.84;10299955;28;96776;-73
2021/12/31 20:10:16;;;;;;;21.50;15.48;;;;;;;4.37;86.09;97164.50;10297336;28;96857;-73
2021/12/31 20:15:21;;;;;;;19.65;13.82;;;;;;;4.43;85.96;97168.50;10291953;28;97175;-73
2021/12/31 20:20:24;;;;;;;18.13;11.93;;;;;;;4.39;85.98;97173.00;10299747;28;99732;-73
2021/12/31 20:25:28;;;;;;;19.52;13.18;;;;;;;4.36;85.59;97178.34;10295587;28;97107;-73
2021/12/31 20:30:31;;;;;;;26.00;18.27;;;;;;;4.25;85.51;97178.94;10293807;28;96824;-73
2021/12/31 20:35:34;;;;;;;20.38;15.45;;;;;;;4.18;85.97;97170.69;10297814;28;96699;-73
2021/12/31 20:40:39;;;;;;;23.20;16.83;;;;;;;4.01;85.92;97178.56;10295904;28;96861;-73
2021/12/31 20:45:41;;;;;;;26.17;17.83;;;;;;;3.80;86.04;97181.38;10295317;28;96967;-73
2021/12/31 20:50:45;;;;;;;22.48;14.32;;;;;;;3.70;87.08;97177.63;10296541;28;96701;-73
2021/12/31 20:55:49;;;;;;;18.83;11.63;;;;;;;3.73;86.70;97172.28;10294801;28;96791;-73
2021/12/31 21:00:52;;;;;;;9.43;7.25;;;;;;;3.68;86.46;97182.03;10295974;28;96899;-73
2021/12/31 21:05:55;;;;;;;9.13;6.32;;;;;;;3.71;86.61;97181.88;10292420;28;96896;-73
2021/12/31 21:10:59;;;;;;;7.20;4.68;;;;;;;3.78;86.65;97177.22;10296605;28;97003;-73
2021/12/31 21:16:02;;;;;;;6.93;4.65;;;;;;;3.80;86.38;97178.78;10295815;28;97111;-73
2021/12/31 21:21:05;;;;;;;10.68;6.45;;;;;;;3.76;86.86;97182.47;10292005;28;96818;-73
2021/12/31 21:26:09;;;;;;;13.38;10.13;;;;;;;3.69;86.89;97182.88;10296967;28;96733;-73
2021/12/31 21:31:21;;;;;;;21.10;14.07;;;;;;;3.67;85.80;97176.94;10294756;28;96944;-73
2021/12/31 21:36:24;;;;;;;12.23;8.82;;;;;;;3.62;85.88;97183.22;10291007;28;97743;-73
2021/12/31 21:41:28;;;;;;;20.77;15.02;;;;;;;3.61;86.31;97178.13;10297465;28;96680;-73
2021/12/31 21:46:31;;;;;;;17.15;11.55;;;;;;;3.57;85.90;97179.19;10294221;28;96917;-73
2021/12/31 21:51:34;;;;;;;20.58;13.60;;;;;;;3.48;85.57;97166.75;10291510;28;97058;-73
2021/12/31 21:56:39;;;;;;;17.55;13.07;;;;;;;3.29;85.90;97162.53;10293576;28;96858;-73
2021/12/31 22:01:42;;;;;;;12.38;9.15;;;;;;;3.02;86.84;97157.91;10293443;28;96889;-73
2021/12/31 22:06:45;;;;;;;12.90;9.05;;;;;;;3.02;86.90;97157.91;10292325;28;96748;-73
2021/12/31 22:11:50;;;;;;;14.65;10.00;;;;;;;3.05;86.00;97162.91;10292702;28;96758;-73
2021/12/31 22:16:53;;;;;;;14.93;10.07;;;;;;;3.00;85.60;97159.75;10293427;28;96710;-73
2021/12/31 22:21:56;;;;;;;14.50;9.60;;;;;;;2.91;86.21;97159.34;10292570;28;96865;-73
2021/12/31 22:27:00;;;;;;;16.58;11.15;;;;;;;2.88;86.89;97165.53;10291136;28;99851;-73
2021/12/31 22:32:03;;;;;;;13.25;8.93;;;;;;;2.87;86.91;97164.69;10295474;28;97929;-73
2021/12/31 22:37:06;;;;;;;13.15;9.20;;;;;;;2.90;85.76;97168.84;10292353;28;96707;-73
2021/12/31 22:42:10;;;;;;;12.32;8.30;;;;;;;2.73;86.11;97167.13;10290291;28;96741;-73
2021/12/31 22:47:33;;;;;;;11.38;6.35;;;;;;;2.77;86.89;97168.66;10292360;28;96715;-73
2021/12/31 22:52:37;;;;;;;9.30;5.47;;;;;;;2.78;86.75;97164.31;10299117;28;101807;-73
2021/12/31 22:57:42;;;;;;;17.13;10.93;;;;;;;2.80;86.85;97165.06;10298469;28;96882;-73
2021/12/31 23:02:45;;;;;;;12.17;7.60;;;;;;;2.65;85.91;97170.09;10299706;28;97089;-73
2021/12/31 23:07:47;;;;;;;11.57;6.88;;;;;;;2.45;86.84;97165.91;10298006;28;96806;-73
2021/12/31 23:12:52;;;;;;;19.08;12.65;;;;;;;2.51;86.01;97167.34;10298912;28;96732;-73
2021/12/31 23:17:54;;;;;;;897.50;657.25;;;;;;;2.54;86.39;97167.19;10297152;28;96958;-73
2021/12/31 23:22:57;;;;;;;903.35;677.88;;;;;;;2.53;86.21;97170.69;10300848;28;96899;-73
2021/12/31 23:28:02;;;;;;;215.95;156.43;;;;;;;2.50;86.42;97170.84;10298362;28;96979;-73
2021/12/31 23:33:05;;;;;;;36.45;25.90;;;;;;;2.46;86.27;97174.50;10295848;28;96719;-73
2021/12/31 23:38:08;;;;;;;11.70;9.70;;;;;;;2.19;86.89;97172.31;10300069;28;96699;-73
2021/12/31 23:43:26;;;;;;;15.93;10.90;;;;;;;2.13;87.13;97168.28;10298322;28;96710;-73
2021/12/31 23:48:29;;;;;;;12.10;8.48;;;;;;;2.19;86.99;97182.63;10294933;28;96797;-73